Worcester, United Kingdom
Current Conditions -  °F | °C
As of 5:20 AM on Saturday 29 Nov 2014 (Local Time) from EGBB Reporting Station
Haze Haze  
Wind Chill: 45°   Ceiling: 600
Heat Index: 48°   Visibility: 2.5mi
Dew Point: 48°   Wind: 7mph
Humidity: 100%   Direction: 60°ENE
Pressure: 29.77"   Gusts: NA
Location:  52.19°N, 2.22°W
Report Text: EGBB 290520Z 06006KT 4000 BR BKN006 BKN008 09/09 Q1008
Loading
Personal Weather Stations






























Interactive Weather Map New forecast layout! Learn more

10-Day Weather Forecast

Advertisements
Track Severe Weather on mobile